sensor_id;sensor_type;location;lat;lon;timestamp;P1;durP1;ratioP1;P2;durP2;ratioP2
18689;SDS011;9782;52.930;15.562;2023-03-03T00:00:47;53.53;;;14.77;;
18689;SDS011;9782;52.930;15.562;2023-03-03T00:03:16;60.93;;;16.13;;
18689;SDS011;9782;52.930;15.562;2023-03-03T00:05:47;49.43;;;17.33;;
18689;SDS011;9782;52.930;15.562;2023-03-03T00:08:14;68.60;;;16.63;;
18689;SDS011;9782;52.930;15.562;2023-03-03T00:10:41;67.33;;;15.70;;
18689;SDS011;9782;52.930;15.562;2023-03-03T00:13:12;87.77;;;15.83;;
18689;SDS011;9782;52.930;15.562;2023-03-03T00:15:42;61.27;;;15.50;;
18689;SDS011;9782;52.930;15.562;2023-03-03T00:18:16;59.13;;;16.00;;
18689;SDS011;9782;52.930;15.562;2023-03-03T00:20:49;59.67;;;14.67;;
18689;SDS011;9782;52.930;15.562;2023-03-03T00:23:23;41.57;;;13.50;;
18689;SDS011;9782;52.930;15.562;2023-03-03T00:25:55;63.33;;;14.40;;
18689;SDS011;9782;52.930;15.562;2023-03-03T00:28:24;72.43;;;15.93;;
18689;SDS011;9782;52.930;15.562;2023-03-03T00:30:55;75.43;;;14.87;;
18689;SDS011;9782;52.930;15.562;2023-03-03T00:33:25;89.07;;;19.50;;
18689;SDS011;9782;52.930;15.562;2023-03-03T00:36:20;78.23;;;13.83;;
18689;SDS011;9782;52.930;15.562;2023-03-03T00:38:56;78.20;;;15.10;;
18689;SDS011;9782;52.930;15.562;2023-03-03T00:41:36;86.70;;;15.47;;
18689;SDS011;9782;52.930;15.562;2023-03-03T00:44:16;71.37;;;16.07;;
18689;SDS011;9782;52.930;15.562;2023-03-03T00:47:11;83.70;;;18.37;;
18689;SDS011;9782;52.930;15.562;2023-03-03T00:49:50;70.97;;;15.40;;
18689;SDS011;9782;52.930;15.562;2023-03-03T00:52:17;56.77;;;14.63;;
18689;SDS011;9782;52.930;15.562;2023-03-03T00:54:45;60.50;;;13.53;;
18689;SDS011;9782;52.930;15.562;2023-03-03T00:57:12;69.50;;;23.13;;
18689;SDS011;9782;52.930;15.562;2023-03-03T00:59:39;70.90;;;17.87;;
18689;SDS011;9782;52.930;15.562;2023-03-03T01:02:06;92.20;;;24.33;;
18689;SDS011;9782;52.930;15.562;2023-03-03T01:04:35;81.03;;;22.83;;
18689;SDS011;9782;52.930;15.562;2023-03-03T01:07:02;67.97;;;20.13;;
18689;SDS011;9782;52.930;15.562;2023-03-03T01:09:29;65.97;;;18.63;;
18689;SDS011;9782;52.930;15.562;2023-03-03T01:11:56;79.30;;;18.70;;
18689;SDS011;9782;52.930;15.562;2023-03-03T01:14:23;82.50;;;15.40;;
18689;SDS011;9782;52.930;15.562;2023-03-03T01:16:50;101.97;;;15.27;;
18689;SDS011;9782;52.930;15.562;2023-03-03T01:19:17;95.97;;;14.90;;
18689;SDS011;9782;52.930;15.562;2023-03-03T01:21:45;73.40;;;17.43;;
18689;SDS011;9782;52.930;15.562;2023-03-03T01:24:12;72.73;;;16.00;;
18689;SDS011;9782;52.930;15.562;2023-03-03T01:26:39;117.50;;;17.30;;
18689;SDS011;9782;52.930;15.562;2023-03-03T01:29:06;77.27;;;19.40;;
18689;SDS011;9782;52.930;15.562;2023-03-03T01:31:33;69.50;;;22.53;;
18689;SDS011;9782;52.930;15.562;2023-03-03T01:34:00;115.20;;;21.23;;
18689;SDS011;9782;52.930;15.562;2023-03-03T01:36:27;109.67;;;17.90;;
18689;SDS011;9782;52.930;15.562;2023-03-03T01:38:56;113.17;;;19.37;;
18689;SDS011;9782;52.930;15.562;2023-03-03T01:41:25;176.63;;;22.90;;
18689;SDS011;9782;52.930;15.562;2023-03-03T01:43:54;66.00;;;16.67;;
18689;SDS011;9782;52.930;15.562;2023-03-03T01:46:27;107.37;;;18.67;;
18689;SDS011;9782;52.930;15.562;2023-03-03T01:49:11;103.50;;;18.43;;
18689;SDS011;9782;52.930;15.562;2023-03-03T01:51:42;73.80;;;14.90;;
18689;SDS011;9782;52.930;15.562;2023-03-03T01:54:15;110.80;;;17.33;;
18689;SDS011;9782;52.930;15.562;2023-03-03T01:56:47;143.00;;;19.07;;
18689;SDS011;9782;52.930;15.562;2023-03-03T01:59:15;70.43;;;14.27;;
18689;SDS011;9782;52.930;15.562;2023-03-03T02:01:45;119.83;;;17.63;;
18689;SDS011;9782;52.930;15.562;2023-03-03T02:04:13;92.07;;;20.60;;
18689;SDS011;9782;52.930;15.562;2023-03-03T02:06:42;81.47;;;21.47;;
18689;SDS011;9782;52.930;15.562;2023-03-03T02:09:13;95.43;;;24.30;;
18689;SDS011;9782;52.930;15.562;2023-03-03T02:11:48;65.27;;;16.93;;
18689;SDS011;9782;52.930;15.562;2023-03-03T02:14:17;87.47;;;19.67;;
18689;SDS011;9782;52.930;15.562;2023-03-03T02:16:44;75.43;;;20.60;;
18689;SDS011;9782;52.930;15.562;2023-03-03T02:19:12;61.30;;;14.13;;
18689;SDS011;9782;52.930;15.562;2023-03-03T02:21:47;79.97;;;14.87;;
18689;SDS011;9782;52.930;15.562;2023-03-03T02:24:15;67.40;;;14.73;;
18689;SDS011;9782;52.930;15.562;2023-03-03T02:26:52;55.23;;;13.93;;
18689;SDS011;9782;52.930;15.562;2023-03-03T02:29:19;73.30;;;16.27;;
18689;SDS011;9782;52.930;15.562;2023-03-03T02:31:46;66.57;;;16.50;;
18689;SDS011;9782;52.930;15.562;2023-03-03T02:34:13;39.60;;;13.70;;
18689;SDS011;9782;52.930;15.562;2023-03-03T02:36:40;76.53;;;18.20;;
18689;SDS011;9782;52.930;15.562;2023-03-03T02:39:08;45.80;;;12.37;;
18689;SDS011;9782;52.930;15.562;2023-03-03T02:41:39;90.87;;;22.30;;
18689;SDS011;9782;52.930;15.562;2023-03-03T02:44:13;71.10;;;17.17;;
18689;SDS011;9782;52.930;15.562;2023-03-03T02:46:43;62.03;;;22.33;;
18689;SDS011;9782;52.930;15.562;2023-03-03T02:49:12;43.27;;;14.37;;
18689;SDS011;9782;52.930;15.562;2023-03-03T02:51:40;72.03;;;13.17;;
18689;SDS011;9782;52.930;15.562;2023-03-03T02:54:08;52.23;;;12.47;;
18689;SDS011;9782;52.930;15.562;2023-03-03T02:56:37;40.73;;;14.70;;
18689;SDS011;9782;52.930;15.562;2023-03-03T02:59:04;56.93;;;14.60;;
18689;SDS011;9782;52.930;15.562;2023-03-03T03:01:33;59.30;;;23.33;;
18689;SDS011;9782;52.930;15.562;2023-03-03T03:04:02;22.53;;;9.10;;
18689;SDS011;9782;52.930;15.562;2023-03-03T03:06:31;41.20;;;12.50;;
18689;SDS011;9782;52.930;15.562;2023-03-03T03:08:58;29.57;;;13.70;;
18689;SDS011;9782;52.930;15.562;2023-03-03T03:11:25;38.43;;;13.87;;
18689;SDS011;9782;52.930;15.562;2023-03-03T03:13:52;30.57;;;12.50;;
18689;SDS011;9782;52.930;15.562;2023-03-03T03:16:19;34.03;;;14.07;;
18689;SDS011;9782;52.930;15.562;2023-03-03T03:18:48;55.17;;;20.43;;
18689;SDS011;9782;52.930;15.562;2023-03-03T03:21:15;64.37;;;17.77;;
18689;SDS011;9782;52.930;15.562;2023-03-03T03:23:42;77.27;;;19.77;;
18689;SDS011;9782;52.930;15.562;2023-03-03T03:26:10;46.03;;;16.20;;
18689;SDS011;9782;52.930;15.562;2023-03-03T03:28:37;62.57;;;19.67;;
18689;SDS011;9782;52.930;15.562;2023-03-03T03:31:05;48.90;;;14.83;;
18689;SDS011;9782;52.930;15.562;2023-03-03T03:33:33;44.77;;;11.33;;
18689;SDS011;9782;52.930;15.562;2023-03-03T03:36:02;45.93;;;13.73;;
18689;SDS011;9782;52.930;15.562;2023-03-03T03:38:30;33.37;;;12.90;;
18689;SDS011;9782;52.930;15.562;2023-03-03T03:40:57;51.17;;;14.83;;
18689;SDS011;9782;52.930;15.562;2023-03-03T03:43:25;45.23;;;11.70;;
18689;SDS011;9782;52.930;15.562;2023-03-03T03:45:52;43.93;;;16.63;;
18689;SDS011;9782;52.930;15.562;2023-03-03T03:48:19;39.43;;;12.27;;
18689;SDS011;9782;52.930;15.562;2023-03-03T03:50:46;42.93;;;10.23;;
18689;SDS011;9782;52.930;15.562;2023-03-03T03:53:15;35.33;;;10.00;;
18689;SDS011;9782;52.930;15.562;2023-03-03T03:55:42;28.93;;;10.13;;
18689;SDS011;9782;52.930;15.562;2023-03-03T03:58:11;30.27;;;10.90;;
18689;SDS011;9782;52.930;15.562;2023-03-03T04:00:39;41.30;;;11.53;;
18689;SDS011;9782;52.930;15.562;2023-03-03T04:03:07;27.13;;;10.00;;
18689;SDS011;9782;52.930;15.562;2023-03-03T04:05:34;26.70;;;9.77;;
18689;SDS011;9782;52.930;15.562;2023-03-03T04:08:02;23.37;;;9.03;;
18689;SDS011;9782;52.930;15.562;2023-03-03T04:10:30;25.23;;;8.93;;
18689;SDS011;9782;52.930;15.562;2023-03-03T04:12:57;22.97;;;7.87;;
18689;SDS011;9782;52.930;15.562;2023-03-03T04:15:24;36.03;;;9.90;;
18689;SDS011;9782;52.930;15.562;2023-03-03T04:17:51;34.70;;;10.20;;
18689;SDS011;9782;52.930;15.562;2023-03-03T04:20:18;45.67;;;11.10;;
18689;SDS011;9782;52.930;15.562;2023-03-03T04:22:45;19.50;;;9.30;;
18689;SDS011;9782;52.930;15.562;2023-03-03T04:25:13;23.90;;;9.37;;
18689;SDS011;9782;52.930;15.562;2023-03-03T04:27:42;23.77;;;9.10;;
18689;SDS011;9782;52.930;15.562;2023-03-03T04:30:10;19.03;;;8.43;;
18689;SDS011;9782;52.930;15.562;2023-03-03T04:32:38;22.70;;;9.67;;
18689;SDS011;9782;52.930;15.562;2023-03-03T04:35:05;29.20;;;9.73;;
18689;SDS011;9782;52.930;15.562;2023-03-03T04:37:33;33.23;;;11.30;;
18689;SDS011;9782;52.930;15.562;2023-03-03T04:40:01;30.00;;;12.50;;
18689;SDS011;9782;52.930;15.562;2023-03-03T04:42:28;24.57;;;9.73;;
18689;SDS011;9782;52.930;15.562;2023-03-03T04:44:56;25.00;;;9.83;;
18689;SDS011;9782;52.930;15.562;2023-03-03T04:47:23;30.63;;;10.37;;
18689;SDS011;9782;52.930;15.562;2023-03-03T04:49:50;18.33;;;8.20;;
18689;SDS011;9782;52.930;15.562;2023-03-03T04:52:18;27.70;;;12.50;;
18689;SDS011;9782;52.930;15.562;2023-03-03T04:54:45;25.83;;;12.10;;
18689;SDS011;9782;52.930;15.562;2023-03-03T04:57:12;26.70;;;14.30;;
18689;SDS011;9782;52.930;15.562;2023-03-03T04:59:39;34.03;;;16.53;;
18689;SDS011;9782;52.930;15.562;2023-03-03T05:02:07;29.87;;;15.10;;
18689;SDS011;9782;52.930;15.562;2023-03-03T05:04:34;36.43;;;12.37;;
18689;SDS011;9782;52.930;15.562;2023-03-03T05:07:01;36.07;;;11.57;;
18689;SDS011;9782;52.930;15.562;2023-03-03T05:09:29;32.07;;;13.07;;
18689;SDS011;9782;52.930;15.562;2023-03-03T05:11:56;28.50;;;11.53;;
18689;SDS011;9782;52.930;15.562;2023-03-03T05:14:23;30.83;;;12.77;;
18689;SDS011;9782;52.930;15.562;2023-03-03T05:16:50;31.10;;;11.30;;
18689;SDS011;9782;52.930;15.562;2023-03-03T05:19:18;26.60;;;12.27;;
18689;SDS011;9782;52.930;15.562;2023-03-03T05:21:45;30.93;;;13.10;;
18689;SDS011;9782;52.930;15.562;2023-03-03T05:24:12;32.27;;;16.57;;
18689;SDS011;9782;52.930;15.562;2023-03-03T05:26:40;37.30;;;18.53;;
18689;SDS011;9782;52.930;15.562;2023-03-03T05:29:07;37.80;;;16.03;;
18689;SDS011;9782;52.930;15.562;2023-03-03T05:31:34;34.80;;;14.47;;
18689;SDS011;9782;52.930;15.562;2023-03-03T05:34:01;35.17;;;14.40;;
18689;SDS011;9782;52.930;15.562;2023-03-03T05:36:30;41.93;;;19.90;;
18689;SDS011;9782;52.930;15.562;2023-03-03T05:38:57;42.60;;;15.33;;
18689;SDS011;9782;52.930;15.562;2023-03-03T05:41:24;36.47;;;12.83;;
18689;SDS011;9782;52.930;15.562;2023-03-03T05:43:51;47.60;;;14.53;;
18689;SDS011;9782;52.930;15.562;2023-03-03T05:46:18;45.00;;;15.40;;
18689;SDS011;9782;52.930;15.562;2023-03-03T05:48:45;57.90;;;17.40;;
18689;SDS011;9782;52.930;15.562;2023-03-03T05:51:11;45.97;;;15.87;;
18689;SDS011;9782;52.930;15.562;2023-03-03T05:53:40;56.97;;;17.20;;
18689;SDS011;9782;52.930;15.562;2023-03-03T05:56:07;51.47;;;15.63;;
18689;SDS011;9782;52.930;15.562;2023-03-03T05:58:34;51.03;;;16.23;;
18689;SDS011;9782;52.930;15.562;2023-03-03T06:01:01;54.90;;;17.77;;
18689;SDS011;9782;52.930;15.562;2023-03-03T06:03:28;93.97;;;19.60;;
18689;SDS011;9782;52.930;15.562;2023-03-03T06:05:55;69.93;;;21.27;;
18689;SDS011;9782;52.930;15.562;2023-03-03T06:08:22;104.93;;;26.70;;
18689;SDS011;9782;52.930;15.562;2023-03-03T06:10:51;208.63;;;52.20;;
18689;SDS011;9782;52.930;15.562;2023-03-03T06:13:18;220.37;;;51.53;;
18689;SDS011;9782;52.930;15.562;2023-03-03T06:15:45;198.40;;;45.07;;
18689;SDS011;9782;52.930;15.562;2023-03-03T06:18:12;235.73;;;51.60;;
18689;SDS011;9782;52.930;15.562;2023-03-03T06:20:39;227.10;;;45.70;;
18689;SDS011;9782;52.930;15.562;2023-03-03T06:23:06;185.50;;;43.13;;
18689;SDS011;9782;52.930;15.562;2023-03-03T06:25:33;163.77;;;40.50;;
18689;SDS011;9782;52.930;15.562;2023-03-03T06:28:01;154.03;;;36.20;;
18689;SDS011;9782;52.930;15.562;2023-03-03T06:30:28;115.13;;;31.50;;
18689;SDS011;9782;52.930;15.562;2023-03-03T06:32:55;67.47;;;22.80;;
18689;SDS011;9782;52.930;15.562;2023-03-03T06:35:22;114.00;;;33.87;;
18689;SDS011;9782;52.930;15.562;2023-03-03T06:37:49;99.63;;;26.40;;
18689;SDS011;9782;52.930;15.562;2023-03-03T06:40:17;179.70;;;45.27;;
18689;SDS011;9782;52.930;15.562;2023-03-03T06:42:44;126.57;;;38.10;;
18689;SDS011;9782;52.930;15.562;2023-03-03T06:45:12;154.60;;;38.80;;
18689;SDS011;9782;52.930;15.562;2023-03-03T06:47:39;164.17;;;43.80;;
18689;SDS011;9782;52.930;15.562;2023-03-03T06:50:07;93.00;;;25.47;;
18689;SDS011;9782;52.930;15.562;2023-03-03T06:52:36;185.50;;;47.77;;
18689;SDS011;9782;52.930;15.562;2023-03-03T06:55:09;123.40;;;35.10;;
18689;SDS011;9782;52.930;15.562;2023-03-03T06:57:38;149.47;;;37.37;;
18689;SDS011;9782;52.930;15.562;2023-03-03T07:00:13;89.73;;;28.93;;
18689;SDS011;9782;52.930;15.562;2023-03-03T07:02:44;95.47;;;25.40;;
18689;SDS011;9782;52.930;15.562;2023-03-03T07:05:13;97.83;;;27.17;;
18689;SDS011;9782;52.930;15.562;2023-03-03T07:07:41;88.20;;;27.83;;
18689;SDS011;9782;52.930;15.562;2023-03-03T07:10:12;60.67;;;20.47;;
18689;SDS011;9782;52.930;15.562;2023-03-03T07:12:47;77.23;;;20.87;;
18689;SDS011;9782;52.930;15.562;2023-03-03T07:15:16;57.47;;;20.33;;
18689;SDS011;9782;52.930;15.562;2023-03-03T07:17:47;71.23;;;22.97;;
18689;SDS011;9782;52.930;15.562;2023-03-03T07:20:17;65.53;;;22.10;;
18689;SDS011;9782;52.930;15.562;2023-03-03T07:22:45;50.80;;;18.00;;
18689;SDS011;9782;52.930;15.562;2023-03-03T07:25:18;72.20;;;27.93;;
18689;SDS011;9782;52.930;15.562;2023-03-03T07:27:47;78.40;;;27.50;;
18689;SDS011;9782;52.930;15.562;2023-03-03T07:30:23;53.87;;;18.33;;
18689;SDS011;9782;52.930;15.562;2023-03-03T07:32:52;81.73;;;24.37;;
18689;SDS011;9782;52.930;15.562;2023-03-03T07:35:35;79.63;;;25.27;;
18689;SDS011;9782;52.930;15.562;2023-03-03T07:38:10;61.83;;;22.33;;
18689;SDS011;9782;52.930;15.562;2023-03-03T07:40:47;70.10;;;21.50;;
18689;SDS011;9782;52.930;15.562;2023-03-03T07:43:19;62.40;;;18.40;;
18689;SDS011;9782;52.930;15.562;2023-03-03T07:45:56;78.43;;;23.77;;
18689;SDS011;9782;52.930;15.562;2023-03-03T07:48:30;67.90;;;22.77;;
18689;SDS011;9782;52.930;15.562;2023-03-03T07:51:01;86.73;;;29.23;;
18689;SDS011;9782;52.930;15.562;2023-03-03T07:53:32;80.60;;;25.77;;
18689;SDS011;9782;52.930;15.562;2023-03-03T07:56:02;63.07;;;20.17;;
18689;SDS011;9782;52.930;15.562;2023-03-03T07:58:41;40.07;;;15.67;;
18689;SDS011;9782;52.930;15.562;2023-03-03T08:04:11;42.30;;;17.03;;
18689;SDS011;9782;52.930;15.562;2023-03-03T08:06:49;46.83;;;15.73;;
18689;SDS011;9782;52.930;15.562;2023-03-03T08:12:17;65.43;;;20.80;;
18689;SDS011;9782;52.930;15.562;2023-03-03T08:14:52;56.80;;;20.90;;
18689;SDS011;9782;52.930;15.562;2023-03-03T08:17:22;62.23;;;22.83;;
18689;SDS011;9782;52.930;15.562;2023-03-03T08:19:51;49.90;;;18.03;;
18689;SDS011;9782;52.930;15.562;2023-03-03T08:22:24;50.57;;;18.07;;
18689;SDS011;9782;52.930;15.562;2023-03-03T08:24:55;39.40;;;14.90;;
18689;SDS011;9782;52.930;15.562;2023-03-03T08:27:22;62.10;;;27.03;;
18689;SDS011;9782;52.930;15.562;2023-03-03T08:29:49;61.53;;;27.67;;
18689;SDS011;9782;52.930;15.562;2023-03-03T08:32:16;68.93;;;26.47;;
18689;SDS011;9782;52.930;15.562;2023-03-03T08:34:44;75.37;;;24.33;;
18689;SDS011;9782;52.930;15.562;2023-03-03T08:37:11;149.57;;;72.60;;
18689;SDS011;9782;52.930;15.562;2023-03-03T08:39:38;84.63;;;42.07;;
18689;SDS011;9782;52.930;15.562;2023-03-03T08:42:05;75.93;;;39.97;;
18689;SDS011;9782;52.930;15.562;2023-03-03T08:44:32;59.80;;;24.50;;
18689;SDS011;9782;52.930;15.562;2023-03-03T08:46:59;55.27;;;24.67;;
18689;SDS011;9782;52.930;15.562;2023-03-03T08:49:26;56.27;;;24.57;;
18689;SDS011;9782;52.930;15.562;2023-03-03T08:51:55;60.10;;;23.33;;
18689;SDS011;9782;52.930;15.562;2023-03-03T08:54:22;54.70;;;22.70;;
18689;SDS011;9782;52.930;15.562;2023-03-03T08:56:49;100.13;;;39.57;;
18689;SDS011;9782;52.930;15.562;2023-03-03T08:59:16;89.30;;;33.63;;
18689;SDS011;9782;52.930;15.562;2023-03-03T09:01:43;82.73;;;29.83;;
18689;SDS011;9782;52.930;15.562;2023-03-03T09:04:10;76.50;;;30.17;;
18689;SDS011;9782;52.930;15.562;2023-03-03T09:06:37;99.07;;;37.83;;
18689;SDS011;9782;52.930;15.562;2023-03-03T09:09:05;94.07;;;37.07;;
18689;SDS011;9782;52.930;15.562;2023-03-03T09:11:32;122.37;;;44.43;;
18689;SDS011;9782;52.930;15.562;2023-03-03T09:14:01;81.17;;;35.97;;
18689;SDS011;9782;52.930;15.562;2023-03-03T09:16:36;56.00;;;25.13;;
18689;SDS011;9782;52.930;15.562;2023-03-03T09:19:18;126.90;;;62.43;;
18689;SDS011;9782;52.930;15.562;2023-03-03T09:21:48;50.37;;;25.47;;
18689;SDS011;9782;52.930;15.562;2023-03-03T09:24:22;41.47;;;18.30;;
18689;SDS011;9782;52.930;15.562;2023-03-03T09:26:51;46.03;;;21.10;;
18689;SDS011;9782;52.930;15.562;2023-03-03T09:29:23;62.17;;;22.93;;
18689;SDS011;9782;52.930;15.562;2023-03-03T09:31:52;51.47;;;24.87;;
18689;SDS011;9782;52.930;15.562;2023-03-03T09:34:21;74.83;;;32.93;;
18689;SDS011;9782;52.930;15.562;2023-03-03T09:36:52;61.00;;;30.30;;
18689;SDS011;9782;52.930;15.562;2023-03-03T09:39:20;84.53;;;38.13;;
18689;SDS011;9782;52.930;15.562;2023-03-03T09:42:00;65.73;;;29.17;;
18689;SDS011;9782;52.930;15.562;2023-03-03T09:44:47;50.97;;;21.87;;
18689;SDS011;9782;52.930;15.562;2023-03-03T09:47:46;65.03;;;26.07;;
18689;SDS011;9782;52.930;15.562;2023-03-03T09:50:36;53.40;;;23.37;;
18689;SDS011;9782;52.930;15.562;2023-03-03T09:53:16;80.43;;;31.53;;
18689;SDS011;9782;52.930;15.562;2023-03-03T09:55:55;47.17;;;21.23;;
18689;SDS011;9782;52.930;15.562;2023-03-03T09:58:30;31.50;;;13.87;;
18689;SDS011;9782;52.930;15.562;2023-03-03T10:01:17;39.90;;;20.67;;
18689;SDS011;9782;52.930;15.562;2023-03-03T10:04:08;46.97;;;21.37;;
18689;SDS011;9782;52.930;15.562;2023-03-03T10:07:00;32.87;;;15.33;;
18689;SDS011;9782;52.930;15.562;2023-03-03T10:09:44;42.73;;;17.27;;
18689;SDS011;9782;52.930;15.562;2023-03-03T10:12:25;27.03;;;12.50;;
18689;SDS011;9782;52.930;15.562;2023-03-03T10:15:01;28.13;;;12.77;;
18689;SDS011;9782;52.930;15.562;2023-03-03T10:17:41;45.53;;;21.20;;
18689;SDS011;9782;52.930;15.562;2023-03-03T10:20:18;36.47;;;15.30;;
18689;SDS011;9782;52.930;15.562;2023-03-03T10:22:55;34.20;;;14.60;;
18689;SDS011;9782;52.930;15.562;2023-03-03T10:25:34;37.43;;;15.33;;
18689;SDS011;9782;52.930;15.562;2023-03-03T10:31:09;39.63;;;17.53;;
18689;SDS011;9782;52.930;15.562;2023-03-03T10:33:45;44.87;;;19.00;;
18689;SDS011;9782;52.930;15.562;2023-03-03T10:36:30;43.03;;;16.07;;
18689;SDS011;9782;52.930;15.562;2023-03-03T10:39:06;49.37;;;17.47;;
18689;SDS011;9782;52.930;15.562;2023-03-03T10:41:52;45.00;;;19.50;;
18689;SDS011;9782;52.930;15.562;2023-03-03T10:44:42;48.93;;;21.23;;
18689;SDS011;9782;52.930;15.562;2023-03-03T10:47:27;42.27;;;16.43;;
18689;SDS011;9782;52.930;15.562;2023-03-03T10:50:11;50.00;;;18.63;;
18689;SDS011;9782;52.930;15.562;2023-03-03T10:52:47;62.50;;;30.17;;
18689;SDS011;9782;52.930;15.562;2023-03-03T11:01:12;47.50;;;19.13;;
18689;SDS011;9782;52.930;15.562;2023-03-03T11:06:44;56.50;;;23.83;;
18689;SDS011;9782;52.930;15.562;2023-03-03T11:09:27;41.77;;;14.27;;
18689;SDS011;9782;52.930;15.562;2023-03-03T11:12:05;79.13;;;36.00;;
18689;SDS011;9782;52.930;15.562;2023-03-03T11:14:42;87.43;;;37.83;;
18689;SDS011;9782;52.930;15.562;2023-03-03T11:17:16;87.23;;;34.17;;
18689;SDS011;9782;52.930;15.562;2023-03-03T11:19:53;58.73;;;20.33;;
18689;SDS011;9782;52.930;15.562;2023-03-03T11:22:31;53.03;;;20.13;;
18689;SDS011;9782;52.930;15.562;2023-03-03T11:25:10;47.80;;;18.70;;
18689;SDS011;9782;52.930;15.562;2023-03-03T11:28:07;55.80;;;23.40;;
18689;SDS011;9782;52.930;15.562;2023-03-03T11:30:52;50.77;;;18.60;;
18689;SDS011;9782;52.930;15.562;2023-03-03T11:33:33;81.13;;;30.00;;
18689;SDS011;9782;52.930;15.562;2023-03-03T11:36:11;56.60;;;20.70;;
18689;SDS011;9782;52.930;15.562;2023-03-03T11:38:50;49.10;;;18.63;;
18689;SDS011;9782;52.930;15.562;2023-03-03T11:41:28;51.20;;;22.43;;
18689;SDS011;9782;52.930;15.562;2023-03-03T11:43:59;105.23;;;44.63;;
18689;SDS011;9782;52.930;15.562;2023-03-03T11:46:35;45.07;;;17.83;;
18689;SDS011;9782;52.930;15.562;2023-03-03T11:49:08;52.97;;;21.70;;
18689;SDS011;9782;52.930;15.562;2023-03-03T11:51:46;74.90;;;32.13;;
18689;SDS011;9782;52.930;15.562;2023-03-03T11:54:20;39.00;;;18.30;;
18689;SDS011;9782;52.930;15.562;2023-03-03T11:56:49;36.33;;;17.13;;
18689;SDS011;9782;52.930;15.562;2023-03-03T11:59:38;45.67;;;21.03;;
18689;SDS011;9782;52.930;15.562;2023-03-03T12:02:31;55.00;;;26.77;;
18689;SDS011;9782;52.930;15.562;2023-03-03T12:05:11;54.63;;;27.67;;
18689;SDS011;9782;52.930;15.562;2023-03-03T12:07:46;56.13;;;25.60;;
18689;SDS011;9782;52.930;15.562;2023-03-03T12:10:21;54.07;;;24.77;;
18689;SDS011;9782;52.930;15.562;2023-03-03T12:12:55;44.27;;;20.50;;
18689;SDS011;9782;52.930;15.562;2023-03-03T12:15:29;41.30;;;20.77;;
18689;SDS011;9782;52.930;15.562;2023-03-03T12:18:07;30.30;;;14.97;;
18689;SDS011;9782;52.930;15.562;2023-03-03T12:21:09;35.23;;;17.53;;
18689;SDS011;9782;52.930;15.562;2023-03-03T12:23:54;30.00;;;13.63;;
18689;SDS011;9782;52.930;15.562;2023-03-03T12:26:39;30.47;;;13.10;;
18689;SDS011;9782;52.930;15.562;2023-03-03T12:29:18;38.20;;;21.33;;
18689;SDS011;9782;52.930;15.562;2023-03-03T12:31:53;41.30;;;20.47;;
18689;SDS011;9782;52.930;15.562;2023-03-03T12:34:30;20.50;;;10.50;;
18689;SDS011;9782;52.930;15.562;2023-03-03T12:37:06;29.03;;;12.70;;
18689;SDS011;9782;52.930;15.562;2023-03-03T12:39:57;33.73;;;17.23;;
18689;SDS011;9782;52.930;15.562;2023-03-03T12:42:35;33.77;;;17.07;;
18689;SDS011;9782;52.930;15.562;2023-03-03T12:45:13;27.47;;;14.07;;
18689;SDS011;9782;52.930;15.562;2023-03-03T12:47:50;28.53;;;13.97;;
18689;SDS011;9782;52.930;15.562;2023-03-03T12:50:23;38.20;;;20.20;;
18689;SDS011;9782;52.930;15.562;2023-03-03T12:53:01;30.90;;;15.93;;
18689;SDS011;9782;52.930;15.562;2023-03-03T12:55:40;26.27;;;14.63;;
18689;SDS011;9782;52.930;15.562;2023-03-03T12:58:14;18.70;;;10.30;;
18689;SDS011;9782;52.930;15.562;2023-03-03T13:00:54;29.50;;;13.43;;
18689;SDS011;9782;52.930;15.562;2023-03-03T13:03:32;29.97;;;14.20;;
18689;SDS011;9782;52.930;15.562;2023-03-03T13:06:06;32.87;;;20.17;;
18689;SDS011;9782;52.930;15.562;2023-03-03T13:08:46;22.83;;;12.03;;
18689;SDS011;9782;52.930;15.562;2023-03-03T13:11:26;19.17;;;9.83;;
18689;SDS011;9782;52.930;15.562;2023-03-03T13:14:03;26.27;;;13.43;;
18689;SDS011;9782;52.930;15.562;2023-03-03T13:16:41;23.83;;;12.47;;
18689;SDS011;9782;52.930;15.562;2023-03-03T13:19:12;22.00;;;11.33;;
18689;SDS011;9782;52.930;15.562;2023-03-03T13:21:46;20.93;;;11.03;;
18689;SDS011;9782;52.930;15.562;2023-03-03T13:24:18;15.57;;;8.77;;
18689;SDS011;9782;52.930;15.562;2023-03-03T13:26:51;26.53;;;14.53;;
18689;SDS011;9782;52.930;15.562;2023-03-03T13:29:23;20.10;;;10.90;;
18689;SDS011;9782;52.930;15.562;2023-03-03T13:31:53;23.67;;;11.53;;
18689;SDS011;9782;52.930;15.562;2023-03-03T13:34:29;20.17;;;10.80;;
18689;SDS011;9782;52.930;15.562;2023-03-03T13:37:04;17.73;;;9.37;;
18689;SDS011;9782;52.930;15.562;2023-03-03T13:39:37;20.43;;;11.00;;
18689;SDS011;9782;52.930;15.562;2023-03-03T13:42:11;31.20;;;13.23;;
18689;SDS011;9782;52.930;15.562;2023-03-03T13:44:45;34.00;;;15.03;;
18689;SDS011;9782;52.930;15.562;2023-03-03T13:47:15;55.03;;;25.20;;
18689;SDS011;9782;52.930;15.562;2023-03-03T13:49:54;24.37;;;11.50;;
18689;SDS011;9782;52.930;15.562;2023-03-03T13:52:28;27.33;;;12.67;;
18689;SDS011;9782;52.930;15.562;2023-03-03T13:55:05;26.43;;;14.30;;
18689;SDS011;9782;52.930;15.562;2023-03-03T13:58:00;33.40;;;16.20;;
18689;SDS011;9782;52.930;15.562;2023-03-03T14:00:43;31.17;;;15.77;;
18689;SDS011;9782;52.930;15.562;2023-03-03T14:03:33;29.03;;;14.03;;
18689;SDS011;9782;52.930;15.562;2023-03-03T14:06:26;40.07;;;20.10;;
18689;SDS011;9782;52.930;15.562;2023-03-03T14:09:04;29.47;;;14.83;;
18689;SDS011;9782;52.930;15.562;2023-03-03T14:11:43;19.67;;;10.20;;
18689;SDS011;9782;52.930;15.562;2023-03-03T14:14:29;24.83;;;11.47;;
18689;SDS011;9782;52.930;15.562;2023-03-03T14:17:07;19.63;;;10.63;;
18689;SDS011;9782;52.930;15.562;2023-03-03T14:19:41;31.60;;;14.70;;
18689;SDS011;9782;52.930;15.562;2023-03-03T14:22:15;23.20;;;11.90;;
18689;SDS011;9782;52.930;15.562;2023-03-03T14:24:55;23.30;;;11.93;;
18689;SDS011;9782;52.930;15.562;2023-03-03T14:27:32;23.37;;;13.30;;
18689;SDS011;9782;52.930;15.562;2023-03-03T14:33:00;21.47;;;11.03;;
18689;SDS011;9782;52.930;15.562;2023-03-03T14:35:40;18.43;;;9.13;;
18689;SDS011;9782;52.930;15.562;2023-03-03T14:38:11;24.10;;;12.73;;
18689;SDS011;9782;52.930;15.562;2023-03-03T14:40:40;23.87;;;12.63;;
18689;SDS011;9782;52.930;15.562;2023-03-03T14:43:18;19.97;;;10.43;;
18689;SDS011;9782;52.930;15.562;2023-03-03T14:45:50;22.97;;;12.60;;
18689;SDS011;9782;52.930;15.562;2023-03-03T14:48:19;22.70;;;11.90;;
18689;SDS011;9782;52.930;15.562;2023-03-03T14:50:48;18.07;;;10.37;;
18689;SDS011;9782;52.930;15.562;2023-03-03T14:53:20;21.83;;;12.73;;
18689;SDS011;9782;52.930;15.562;2023-03-03T14:56:13;21.40;;;12.60;;
18689;SDS011;9782;52.930;15.562;2023-03-03T14:58:42;18.90;;;10.33;;
18689;SDS011;9782;52.930;15.562;2023-03-03T15:01:21;16.43;;;9.80;;
18689;SDS011;9782;52.930;15.562;2023-03-03T15:03:58;18.60;;;9.30;;
18689;SDS011;9782;52.930;15.562;2023-03-03T15:06:28;22.47;;;13.10;;
18689;SDS011;9782;52.930;15.562;2023-03-03T15:11:45;19.50;;;10.90;;
18689;SDS011;9782;52.930;15.562;2023-03-03T15:14:17;24.27;;;13.53;;